createdAt,value
2017-07-15T00:00:00.161Z,9.10
2017-07-15T00:02:28.422Z,8.43
2017-07-15T00:04:56.837Z,9.00
2017-07-15T00:07:25.100Z,7.93
2017-07-15T00:09:53.561Z,9.90
2017-07-15T00:12:21.836Z,8.90
2017-07-15T00:14:50.085Z,9.40
2017-07-15T00:17:18.338Z,7.83
2017-07-15T00:19:46.612Z,8.13
2017-07-15T00:22:14.848Z,8.53
2017-07-15T00:24:43.104Z,8.87
2017-07-15T00:27:11.397Z,10.27
2017-07-15T00:29:39.632Z,7.93
2017-07-15T00:32:07.877Z,8.57
2017-07-15T00:34:36.158Z,9.90
2017-07-15T00:37:04.399Z,9.27
2017-07-15T00:39:32.637Z,9.63
2017-07-15T00:42:00.929Z,9.80
2017-07-15T00:44:29.575Z,8.73
2017-07-15T00:46:57.821Z,9.40
2017-07-15T00:49:26.111Z,7.43
2017-07-15T00:51:54.354Z,8.60
2017-07-15T00:54:22.590Z,8.27
2017-07-15T00:56:50.902Z,8.90
2017-07-15T00:59:19.546Z,8.80
2017-07-15T01:01:47.787Z,8.10
2017-07-15T01:04:16.066Z,9.07
2017-07-15T01:06:44.332Z,8.63
2017-07-15T01:09:12.573Z,9.00
2017-07-15T01:11:40.849Z,8.70
2017-07-15T01:14:09.498Z,9.87
2017-07-15T01:16:37.740Z,9.73
2017-07-15T01:19:06.010Z,10.47
2017-07-15T01:21:34.261Z,10.50
2017-07-15T01:24:02.505Z,10.60
2017-07-15T01:26:30.791Z,7.80
2017-07-15T01:28:59.032Z,9.40
2017-07-15T01:31:28.935Z,9.50
2017-07-15T01:33:57.217Z,8.70
2017-07-15T01:36:25.457Z,7.53
2017-07-15T01:38:54.092Z,8.13
2017-07-15T01:41:22.708Z,7.50
2017-07-15T01:43:50.949Z,7.83
2017-07-15T01:46:19.192Z,7.80
2017-07-15T01:48:47.860Z,6.77
2017-07-15T01:51:16.497Z,8.20
2017-07-15T01:53:44.755Z,8.57
2017-07-15T01:56:13.241Z,8.00
2017-07-15T01:58:41.496Z,6.50
2017-07-15T02:01:09.817Z,11.93
2017-07-15T02:03:38.101Z,9.23
2017-07-15T02:06:06.601Z,7.30
2017-07-15T02:08:34.836Z,7.43
2017-07-15T02:11:03.148Z,9.97
2017-07-15T02:13:31.382Z,8.30
2017-07-15T02:15:59.626Z,7.27
2017-07-15T02:18:28.005Z,7.27
2017-07-15T02:20:56.634Z,7.47
2017-07-15T02:23:24.880Z,8.20
2017-07-15T02:25:53.154Z,7.00
2017-07-15T02:28:21.476Z,6.17
2017-07-15T02:30:49.696Z,6.70
2017-07-15T02:33:17.985Z,7.30
2017-07-15T02:35:46.249Z,8.70
2017-07-15T02:38:14.886Z,7.37
2017-07-15T02:40:43.145Z,6.40
2017-07-15T02:43:11.418Z,7.87
2017-07-15T02:45:39.648Z,6.80
2017-07-15T02:48:08.337Z,7.00
2017-07-15T02:50:36.580Z,8.30
2017-07-15T02:53:04.828Z,7.53
2017-07-15T02:55:33.132Z,6.73
2017-07-15T02:58:01.364Z,7.00
2017-07-15T03:00:29.610Z,7.97
2017-07-15T03:02:58.282Z,7.80
2017-07-15T03:05:26.562Z,9.23
2017-07-15T03:07:54.828Z,8.93
2017-07-15T03:10:23.088Z,8.97
2017-07-15T03:12:51.322Z,7.53
2017-07-15T03:15:19.559Z,8.23
2017-07-15T03:17:47.855Z,7.87
2017-07-15T03:20:16.482Z,7.00
2017-07-15T03:22:44.728Z,7.20
2017-07-15T03:25:13.004Z,6.83
2017-07-15T03:27:41.259Z,7.00
2017-07-15T03:30:09.502Z,6.30
2017-07-15T03:32:37.792Z,7.90
2017-07-15T03:35:06.269Z,6.63
2017-07-15T03:37:34.518Z,7.47
2017-07-15T03:40:02.812Z,7.50
2017-07-15T03:42:31.056Z,7.83
2017-07-15T03:44:59.298Z,7.47
2017-07-15T03:47:27.877Z,8.37
2017-07-15T03:49:56.137Z,8.67
2017-07-15T03:52:24.416Z,8.90
2017-07-15T03:54:53.573Z,9.60
2017-07-15T03:57:21.805Z,8.20
2017-07-15T03:59:50.057Z,9.20
2017-07-15T04:02:18.345Z,7.20
2017-07-15T04:04:46.591Z,8.27
2017-07-15T04:07:15.092Z,9.63
2017-07-15T04:09:43.369Z,9.37
2017-07-15T04:12:11.612Z,6.70
2017-07-15T04:14:39.860Z,7.30
2017-07-15T04:17:08.145Z,7.20
2017-07-15T04:19:36.385Z,6.90
2017-07-15T04:22:05.026Z,7.70
2017-07-15T04:24:33.317Z,9.07
2017-07-15T04:27:01.562Z,7.47
2017-07-15T04:29:29.821Z,7.20
2017-07-15T04:31:58.485Z,8.13
2017-07-15T04:34:27.131Z,7.10
2017-07-15T04:36:55.473Z,8.93
2017-07-15T04:39:23.750Z,7.40
2017-07-15T04:41:51.982Z,6.70
2017-07-15T04:44:20.236Z,8.33
2017-07-15T04:46:48.511Z,6.97
2017-07-15T04:49:16.761Z,6.77
2017-07-15T04:51:44.997Z,8.30
2017-07-15T04:54:13.659Z,7.50
2017-07-15T04:56:41.904Z,7.37
2017-07-15T04:59:10.374Z,8.00
2017-07-15T05:01:38.634Z,6.03
2017-07-15T05:04:07.264Z,9.43
2017-07-15T05:06:35.508Z,6.73
2017-07-15T05:09:03.780Z,6.73
2017-07-15T05:11:32.028Z,8.73
2017-07-15T05:14:00.686Z,9.30
2017-07-15T05:16:28.988Z,10.23
2017-07-15T05:18:57.633Z,9.03
2017-07-15T05:21:25.869Z,10.30
2017-07-15T05:23:54.188Z,10.50
2017-07-15T05:26:22.531Z,10.00
2017-07-15T05:28:50.820Z,10.50
2017-07-15T05:31:19.124Z,9.93
2017-07-15T05:33:47.469Z,8.70
2017-07-15T05:36:15.732Z,9.73
2017-07-15T05:38:44.060Z,10.37
2017-07-15T05:41:12.429Z,10.47
2017-07-15T05:43:40.665Z,10.77
2017-07-15T05:46:09.011Z,10.50
2017-07-15T05:48:37.267Z,10.20
2017-07-15T05:51:05.730Z,8.80
2017-07-15T05:53:34.078Z,10.77
2017-07-15T05:56:05.909Z,9.77
2017-07-15T05:58:34.586Z,7.13
2017-07-15T06:01:02.830Z,8.47
2017-07-15T06:03:31.086Z,9.80
2017-07-15T06:06:00.302Z,10.90
2017-07-15T06:08:28.591Z,8.93
2017-07-15T06:10:56.853Z,10.03
2017-07-15T06:13:25.245Z,9.20
2017-07-15T06:15:54.285Z,8.97
2017-07-15T06:18:22.545Z,8.23
2017-07-15T06:20:50.818Z,7.30
2017-07-15T06:23:19.467Z,9.67
2017-07-15T06:25:47.713Z,6.90
2017-07-15T06:28:16.147Z,10.30
2017-07-15T06:30:44.590Z,6.07
2017-07-15T06:33:12.842Z,8.97
2017-07-15T06:35:41.125Z,9.27
2017-07-15T06:38:09.373Z,9.57
2017-07-15T06:40:38.025Z,8.07
2017-07-15T06:43:06.383Z,7.93
2017-07-15T06:45:34.682Z,9.67
2017-07-15T06:48:02.936Z,7.70
2017-07-15T06:50:31.323Z,8.60
2017-07-15T06:52:59.681Z,8.10
2017-07-15T06:55:27.961Z,6.37
2017-07-15T06:57:56.244Z,8.27
2017-07-15T07:00:24.489Z,4.70
2017-07-15T07:02:52.743Z,5.37
2017-07-15T07:05:21.672Z,6.20
2017-07-15T07:07:49.909Z,6.80
2017-07-15T07:10:18.566Z,5.10
2017-07-15T07:12:47.090Z,5.40
2017-07-15T07:15:15.720Z,7.60
2017-07-15T07:17:43.965Z,5.80
2017-07-15T07:20:12.350Z,6.10
2017-07-15T07:22:40.736Z,6.20
2017-07-15T07:25:08.981Z,5.90
2017-07-15T07:27:37.658Z,5.87
2017-07-15T07:30:06.315Z,5.80
2017-07-15T07:32:34.565Z,5.50
2017-07-15T07:35:02.872Z,5.40
2017-07-15T07:37:31.369Z,6.20
2017-07-15T07:39:59.693Z,7.10
2017-07-15T07:42:27.966Z,5.40
2017-07-15T07:44:56.232Z,6.90
2017-07-15T07:47:24.553Z,6.13
2017-07-15T07:49:52.831Z,5.27
2017-07-15T07:52:21.769Z,6.70
2017-07-15T07:54:50.312Z,5.20
2017-07-15T07:57:18.602Z,5.57
2017-07-15T07:59:46.863Z,5.73
2017-07-15T08:02:15.165Z,6.23
2017-07-15T08:04:43.447Z,5.40
2017-07-15T08:07:11.789Z,5.10
2017-07-15T08:09:40.194Z,6.10
2017-07-15T08:12:08.903Z,5.40
2017-07-15T08:14:37.204Z,5.40
2017-07-15T08:17:05.609Z,6.57
2017-07-15T08:19:34.406Z,7.10
2017-07-15T08:22:03.189Z,6.70
2017-07-15T08:24:31.981Z,6.33
2017-07-15T08:27:00.260Z,7.40
2017-07-15T08:29:28.734Z,5.87
2017-07-15T08:31:57.224Z,6.60
2017-07-15T08:34:25.529Z,6.77
2017-07-15T08:36:53.887Z,6.80
2017-07-15T08:39:22.154Z,6.13
2017-07-15T08:41:50.429Z,5.87
2017-07-15T08:44:18.681Z,6.03
2017-07-15T08:46:46.933Z,5.77
2017-07-15T08:49:15.248Z,7.00
2017-07-15T08:51:43.484Z,8.60
2017-07-15T08:54:11.737Z,10.20
2017-07-15T08:56:40.037Z,9.03
2017-07-15T08:59:08.309Z,10.00
2017-07-15T09:01:36.560Z,9.83
2017-07-15T09:04:04.829Z,9.97
2017-07-15T09:06:33.557Z,10.20
2017-07-15T09:09:02.168Z,9.90
2017-07-15T09:11:31.047Z,7.97
2017-07-15T09:13:59.729Z,8.10
2017-07-15T09:16:27.988Z,7.10
2017-07-15T09:18:56.602Z,8.13
2017-07-15T09:21:24.885Z,7.60
2017-07-15T09:23:53.372Z,10.57
2017-07-15T09:26:21.668Z,11.23
2017-07-15T09:28:49.911Z,6.63
2017-07-15T09:31:18.770Z,5.97
2017-07-15T09:33:47.072Z,5.83
2017-07-15T09:36:15.336Z,5.30
2017-07-15T09:38:43.582Z,4.40
2017-07-15T09:41:11.857Z,5.60
2017-07-15T09:43:40.114Z,5.30
2017-07-15T09:46:08.788Z,4.57
2017-07-15T09:48:37.099Z,5.70
2017-07-15T09:51:05.414Z,6.93
2017-07-15T09:53:33.766Z,5.30
2017-07-15T09:56:02.077Z,5.50
2017-07-15T09:58:30.327Z,5.20
2017-07-15T10:00:58.562Z,4.60
2017-07-15T10:03:28.051Z,5.00
2017-07-15T10:05:56.302Z,4.43
2017-07-15T10:08:24.559Z,4.77
2017-07-15T10:10:53.302Z,4.70
2017-07-15T10:13:21.587Z,4.10
2017-07-15T10:15:49.835Z,4.80
2017-07-15T10:18:18.110Z,4.97
2017-07-15T10:20:46.366Z,4.40
2017-07-15T10:23:14.665Z,6.10
2017-07-15T10:25:42.905Z,7.23
2017-07-15T10:28:11.608Z,6.90
2017-07-15T10:30:39.852Z,5.97
2017-07-15T10:33:08.243Z,5.13
2017-07-15T10:35:36.785Z,6.57
2017-07-15T10:38:05.342Z,8.50
2017-07-15T10:40:34.332Z,9.27
2017-07-15T10:43:02.584Z,9.83
2017-07-15T10:45:30.984Z,12.27
2017-07-15T10:47:59.283Z,12.47
2017-07-15T10:50:27.533Z,13.40
2017-07-15T10:52:55.777Z,15.50
2017-07-15T10:55:24.065Z,14.70
2017-07-15T10:57:52.321Z,13.20
2017-07-15T11:00:20.560Z,8.10
2017-07-15T11:02:48.929Z,7.47
2017-07-15T11:05:17.400Z,6.43
2017-07-15T11:07:45.633Z,16.43
2017-07-15T11:10:13.923Z,14.40
2017-07-15T11:12:42.188Z,11.37
2017-07-15T11:15:10.447Z,8.50
2017-07-15T11:17:38.732Z,16.97
2017-07-15T11:20:06.981Z,8.73
2017-07-15T11:22:35.216Z,8.03
2017-07-15T11:25:03.528Z,12.03
2017-07-15T11:27:32.494Z,5.60
2017-07-15T11:30:00.750Z,9.80
2017-07-15T11:32:29.061Z,8.30
2017-07-15T11:34:57.369Z,8.10
2017-07-15T11:37:25.625Z,7.00
2017-07-15T11:39:53.992Z,7.30
2017-07-15T11:42:22.656Z,6.00
2017-07-15T11:44:51.357Z,6.90
2017-07-15T11:47:19.740Z,10.20
2017-07-15T11:49:47.983Z,11.93
2017-07-15T11:52:16.228Z,6.93
2017-07-15T11:54:44.513Z,6.03
2017-07-15T11:57:12.755Z,6.30
2017-07-15T11:59:40.984Z,5.80
2017-07-15T12:02:09.248Z,5.17
2017-07-15T12:04:37.486Z,4.90
2017-07-15T12:07:06.448Z,5.60
2017-07-15T12:09:34.734Z,4.50
2017-07-15T12:12:03.001Z,4.70
2017-07-15T12:14:31.237Z,5.27
2017-07-15T12:16:59.509Z,4.83
2017-07-15T12:19:28.037Z,5.37
2017-07-15T12:21:56.307Z,4.53
2017-07-15T12:24:24.570Z,3.67
2017-07-15T12:29:27.991Z,4.30
2017-07-15T12:31:56.241Z,4.50
2017-07-15T12:34:24.508Z,4.30
2017-07-15T12:36:52.776Z,4.87
2017-07-15T12:39:21.007Z,4.40
2017-07-15T12:41:49.269Z,4.50
2017-07-15T12:44:17.545Z,4.67
2017-07-15T12:46:45.803Z,4.63
2017-07-15T12:49:14.310Z,4.80
2017-07-15T12:51:42.585Z,4.77
2017-07-15T12:54:10.825Z,4.60
2017-07-15T12:56:39.100Z,4.20
2017-07-15T12:59:07.388Z,4.70
2017-07-15T13:01:35.855Z,4.50
2017-07-15T13:04:04.099Z,4.00
2017-07-15T13:06:32.509Z,4.20
2017-07-15T13:09:00.739Z,4.77
2017-07-15T13:11:28.989Z,4.47
2017-07-15T13:13:57.258Z,4.37
2017-07-15T13:16:25.542Z,4.10
2017-07-15T13:18:53.762Z,4.27
2017-07-15T13:21:22.420Z,4.10
2017-07-15T13:23:50.668Z,4.03
2017-07-15T13:26:18.902Z,4.83
2017-07-15T13:28:47.292Z,4.27
2017-07-15T13:31:15.573Z,4.80
2017-07-15T13:33:43.826Z,4.80
2017-07-15T13:36:12.495Z,5.03
2017-07-15T13:38:40.757Z,4.30
2017-07-15T13:41:09.031Z,3.97
2017-07-15T13:43:37.301Z,4.07
2017-07-15T13:46:05.557Z,4.27
2017-07-15T13:48:33.797Z,4.50
2017-07-15T13:51:02.077Z,3.73
2017-07-15T13:53:30.349Z,4.00
2017-07-15T13:55:58.587Z,3.87
2017-07-15T13:58:26.857Z,3.93
2017-07-15T14:00:55.324Z,3.53
2017-07-15T14:03:23.556Z,4.17
2017-07-15T14:05:51.828Z,3.73
2017-07-15T14:08:20.062Z,3.60
2017-07-15T14:10:48.538Z,4.60
2017-07-15T14:13:16.817Z,4.50
2017-07-15T14:15:45.047Z,3.90
2017-07-15T14:18:13.290Z,3.90
2017-07-15T14:20:42.010Z,3.60
2017-07-15T14:23:10.215Z,3.70
2017-07-15T14:25:38.443Z,4.30
2017-07-15T14:28:07.422Z,4.27
2017-07-15T14:30:35.642Z,4.23
2017-07-15T14:33:04.158Z,3.93
2017-07-15T14:35:32.533Z,4.47
2017-07-15T14:38:00.752Z,4.33
2017-07-15T14:40:29.005Z,4.10
2017-07-15T14:42:57.310Z,4.10
2017-07-15T14:45:25.544Z,4.60
2017-07-15T14:47:53.780Z,4.40
2017-07-15T14:50:22.185Z,4.50
2017-07-15T14:52:50.414Z,4.00
2017-07-15T14:55:18.694Z,4.10
2017-07-15T14:57:47.013Z,3.97
2017-07-15T15:00:15.308Z,6.00
2017-07-15T15:02:43.540Z,4.60
2017-07-15T15:05:11.910Z,4.60
2017-07-15T15:07:40.145Z,4.50
2017-07-15T15:10:08.790Z,4.07
2017-07-15T15:12:37.048Z,4.90
2017-07-15T15:15:05.298Z,4.50
2017-07-15T15:17:33.928Z,4.70
2017-07-15T15:20:02.198Z,5.20
2017-07-15T15:22:30.445Z,4.47
2017-07-15T15:24:58.691Z,4.93
2017-07-15T15:27:26.969Z,4.97
2017-07-15T15:29:55.612Z,5.47
2017-07-15T15:32:23.857Z,5.00
2017-07-15T15:34:52.137Z,4.93
2017-07-15T15:37:20.387Z,5.67
2017-07-15T15:39:49.008Z,4.80
2017-07-15T15:42:17.524Z,3.60
2017-07-15T15:44:45.767Z,4.40
2017-07-15T15:47:14.021Z,4.33
2017-07-15T15:49:42.337Z,5.50
2017-07-15T15:52:10.575Z,4.50
2017-07-15T15:54:38.819Z,4.90
2017-07-15T15:57:07.075Z,4.87
2017-07-15T15:59:35.307Z,4.50
2017-07-15T16:02:03.545Z,5.73
2017-07-15T16:04:31.805Z,5.07
2017-07-15T16:07:00.053Z,4.43
2017-07-15T16:09:28.284Z,5.33
2017-07-15T16:11:56.944Z,4.73
2017-07-15T16:14:25.172Z,6.07
2017-07-15T16:16:53.701Z,4.90
2017-07-15T16:19:21.971Z,5.00
2017-07-15T16:21:50.209Z,4.30
2017-07-15T16:24:18.519Z,5.37
2017-07-15T16:26:46.787Z,5.60
2017-07-15T16:29:15.023Z,5.53
2017-07-15T16:31:43.262Z,6.00
2017-07-15T16:34:11.834Z,5.60
2017-07-15T16:36:40.488Z,6.03
2017-07-15T16:39:08.722Z,6.10
2017-07-15T16:41:37.372Z,6.50
2017-07-15T16:44:05.617Z,5.80
2017-07-15T16:46:33.852Z,5.50
2017-07-15T16:49:02.825Z,6.17
2017-07-15T16:51:31.074Z,7.87
2017-07-15T16:53:59.310Z,6.13
2017-07-15T16:56:27.605Z,5.80
2017-07-15T16:58:55.864Z,7.37
2017-07-15T17:01:24.486Z,5.97
2017-07-15T17:03:52.763Z,6.17
2017-07-15T17:06:20.996Z,6.73
2017-07-15T17:08:49.240Z,6.33
2017-07-15T17:11:17.510Z,4.60
2017-07-15T17:13:45.743Z,4.47
2017-07-15T17:16:13.981Z,4.40
2017-07-15T17:18:42.272Z,4.10
2017-07-15T17:21:10.904Z,3.70
2017-07-15T17:23:39.152Z,3.80
2017-07-15T17:26:07.409Z,4.00
2017-07-15T17:28:36.044Z,4.20
2017-07-15T17:31:04.278Z,3.90
2017-07-15T17:33:32.569Z,3.43
2017-07-15T17:36:01.091Z,3.80
2017-07-15T17:38:29.325Z,3.27
2017-07-15T17:40:57.596Z,3.67
2017-07-15T17:43:25.837Z,5.07
2017-07-15T17:45:54.466Z,5.00
2017-07-15T17:48:22.772Z,5.70
2017-07-15T17:50:51.008Z,5.00
2017-07-15T17:53:19.466Z,5.67
2017-07-15T17:55:47.766Z,4.90
2017-07-15T17:58:16.008Z,5.27
2017-07-15T18:00:45.705Z,5.30
2017-07-15T18:03:14.069Z,4.27
2017-07-15T18:05:42.778Z,4.47
2017-07-15T18:08:11.421Z,3.80
2017-07-15T18:10:39.710Z,4.60
2017-07-15T18:13:08.318Z,5.13
2017-07-15T18:15:36.559Z,4.77
2017-07-15T18:18:04.868Z,4.60
2017-07-15T18:20:33.160Z,4.40
2017-07-15T18:23:01.475Z,4.53
2017-07-15T18:25:29.743Z,3.50
2017-07-15T18:27:57.980Z,3.63
2017-07-15T18:30:26.623Z,4.13
2017-07-15T18:32:55.227Z,3.60
2017-07-15T18:35:23.464Z,3.67
2017-07-15T18:37:51.723Z,4.00
2017-07-15T18:40:20.396Z,4.57
2017-07-15T18:42:48.791Z,4.90
2017-07-15T18:45:17.057Z,4.50
2017-07-15T18:47:46.021Z,5.20
2017-07-15T18:50:14.256Z,5.67
2017-07-15T18:52:42.495Z,5.67
2017-07-15T18:55:11.457Z,5.70
2017-07-15T18:57:39.689Z,6.47
2017-07-15T19:00:07.991Z,6.60
2017-07-15T19:02:36.263Z,5.43
2017-07-15T19:05:04.707Z,5.13
2017-07-15T19:07:33.469Z,3.50
2017-07-15T19:10:02.152Z,4.00
2017-07-15T19:12:30.794Z,3.40
2017-07-15T19:14:59.025Z,3.37
2017-07-15T19:17:27.580Z,4.30
2017-07-15T19:19:55.816Z,3.90
2017-07-15T19:22:24.075Z,4.53
2017-07-15T19:24:52.438Z,5.37
2017-07-15T19:27:21.081Z,4.57
2017-07-15T19:29:49.318Z,5.70
2017-07-15T19:32:17.580Z,5.90
2017-07-15T19:34:45.929Z,5.10
2017-07-15T19:37:14.169Z,4.63
2017-07-15T19:39:42.452Z,5.10
2017-07-15T19:42:10.685Z,3.97
2017-07-15T19:44:38.926Z,4.23
2017-07-15T19:47:07.213Z,3.67
2017-07-15T19:49:35.554Z,4.30
2017-07-15T19:52:03.785Z,4.40
2017-07-15T19:54:32.444Z,5.03
2017-07-15T19:57:00.774Z,4.10
2017-07-15T19:59:29.001Z,4.63
2017-07-15T20:01:57.257Z,5.37
2017-07-15T20:04:25.489Z,5.77
2017-07-15T20:06:53.923Z,4.50
2017-07-15T20:09:22.264Z,4.37
2017-07-15T20:11:50.497Z,4.67
2017-07-15T20:14:19.149Z,4.73
2017-07-15T20:16:47.413Z,4.97
2017-07-15T20:19:15.655Z,5.03
2017-07-15T20:21:43.917Z,5.53
2017-07-15T20:24:12.250Z,5.93
2017-07-15T20:26:40.741Z,6.20
2017-07-15T20:29:08.980Z,5.17
2017-07-15T20:31:37.474Z,5.40
2017-07-15T20:34:05.733Z,6.53
2017-07-15T20:36:51.675Z,8.77
2017-07-15T20:39:19.920Z,5.07
2017-07-15T20:41:48.153Z,6.23
2017-07-15T20:44:16.515Z,6.20
2017-07-15T20:46:45.193Z,6.23
2017-07-15T20:49:13.601Z,6.47
2017-07-15T20:51:41.866Z,6.30
2017-07-15T20:54:10.721Z,6.50
2017-07-15T20:56:38.961Z,7.67
2017-07-15T20:59:07.482Z,8.33
2017-07-15T21:01:35.787Z,7.70
2017-07-15T21:04:04.298Z,7.20
2017-07-15T21:06:32.570Z,6.57
2017-07-15T21:09:01.047Z,7.00
2017-07-15T21:11:29.289Z,6.70
2017-07-15T21:13:57.568Z,6.40
2017-07-15T21:16:26.219Z,6.10
2017-07-15T21:18:54.503Z,6.83
2017-07-15T21:21:22.804Z,6.20
2017-07-15T21:23:51.510Z,6.50
2017-07-15T21:26:19.750Z,6.00
2017-07-15T21:28:48.050Z,6.40
2017-07-15T21:31:16.291Z,5.57
2017-07-15T21:33:44.549Z,4.53
2017-07-15T21:36:12.957Z,5.47
2017-07-15T21:38:41.562Z,6.57
2017-07-15T21:41:10.186Z,5.70
2017-07-15T21:43:38.943Z,6.47
2017-07-15T21:46:07.212Z,6.47
2017-07-15T21:48:35.493Z,5.60
2017-07-15T21:51:03.785Z,7.20
2017-07-15T21:53:32.030Z,5.57
2017-07-15T21:56:00.664Z,6.20
2017-07-15T21:58:28.942Z,6.80
2017-07-15T22:00:57.588Z,7.43
2017-07-15T22:03:30.299Z,5.70
2017-07-15T22:06:09.345Z,5.30
2017-07-15T22:08:37.643Z,5.87
2017-07-15T22:11:06.042Z,6.77
2017-07-15T22:13:34.284Z,5.80
2017-07-15T22:16:02.847Z,6.17
2017-07-15T22:18:31.082Z,7.07
2017-07-15T22:20:59.326Z,6.60
2017-07-15T22:23:27.625Z,5.53
2017-07-15T22:25:56.597Z,6.47
2017-07-15T22:28:24.829Z,6.80
2017-07-15T22:30:53.141Z,5.47
2017-07-15T22:33:21.394Z,5.60
2017-07-15T22:35:49.629Z,6.73
2017-07-15T22:38:17.909Z,5.60
2017-07-15T22:40:46.144Z,6.53
2017-07-15T22:43:14.399Z,5.40
2017-07-15T22:45:42.685Z,5.73
2017-07-15T22:48:10.924Z,5.20
2017-07-15T22:50:39.179Z,5.60
2017-07-15T22:53:07.867Z,5.23
2017-07-15T22:55:36.517Z,4.83
2017-07-15T22:58:04.760Z,5.50
2017-07-15T23:00:33.030Z,5.70
2017-07-15T23:03:01.264Z,6.20
2017-07-15T23:05:29.499Z,7.27
2017-07-15T23:07:57.752Z,7.50
2017-07-15T23:10:25.994Z,5.67
2017-07-15T23:12:54.231Z,5.20
2017-07-15T23:15:22.488Z,5.70
2017-07-15T23:17:50.729Z,8.13
2017-07-15T23:20:19.353Z,8.23
2017-07-15T23:22:47.628Z,9.50
2017-07-15T23:25:15.868Z,7.83
2017-07-15T23:27:44.496Z,9.47
2017-07-15T23:30:12.804Z,9.23
2017-07-15T23:32:41.053Z,8.70
2017-07-15T23:35:09.305Z,8.97
2017-07-15T23:37:37.595Z,9.90
2017-07-15T23:40:05.832Z,9.50
2017-07-15T23:42:34.481Z,8.97
2017-07-15T23:45:02.761Z,8.77
2017-07-15T23:47:30.998Z,8.20
2017-07-15T23:49:59.246Z,8.63
2017-07-15T23:52:27.909Z,7.83
2017-07-15T23:54:56.153Z,8.30
2017-07-15T23:57:24.390Z,8.30
2017-07-15T23:59:52.933Z,8.10
